createdAt,value
2023-04-26T00:00:11.347Z,5.9522
2023-04-26T00:01:12.042Z,5.9640
2023-04-26T00:02:12.797Z,5.9992
2023-04-26T00:03:13.628Z,6.0323
2023-04-26T00:04:14.817Z,6.0350
2023-04-26T00:05:15.742Z,6.0874
2023-04-26T00:06:16.455Z,6.1509
2023-04-26T00:07:17.138Z,6.1289
2023-04-26T00:08:17.776Z,6.1046
2023-04-26T00:09:18.505Z,6.1065
2023-04-26T00:10:19.171Z,6.0969
2023-04-26T00:11:19.835Z,6.1139
2023-04-26T00:12:20.542Z,6.1625
2023-04-26T00:13:21.260Z,6.1962
2023-04-26T00:14:21.900Z,6.2175
2023-04-26T00:15:22.584Z,6.2019
2023-04-26T00:16:23.255Z,6.2051
2023-04-26T00:17:23.896Z,6.2163
2023-04-26T00:18:24.516Z,6.2312
2023-04-26T00:19:25.159Z,6.1427
2023-04-26T00:20:25.787Z,6.0981
2023-04-26T00:21:26.439Z,6.1517
2023-04-26T00:22:27.052Z,6.0891
2023-04-26T00:23:27.730Z,6.1508
2023-04-26T00:24:28.468Z,6.1838
2023-04-26T00:25:29.130Z,6.1489
2023-04-26T00:26:29.773Z,6.1468
2023-04-26T00:27:30.430Z,6.1105
2023-04-26T00:28:31.045Z,6.1400
2023-04-26T00:29:31.748Z,6.1375
2023-04-26T00:30:32.445Z,6.1112
2023-04-26T00:31:33.107Z,6.0994
2023-04-26T00:32:33.751Z,6.1119
2023-04-26T00:33:34.475Z,6.1333
2023-04-26T00:34:35.167Z,6.1135
2023-04-26T00:35:35.834Z,6.1267
2023-04-26T00:36:36.608Z,6.0739
2023-04-26T00:37:37.336Z,6.1625
2023-04-26T00:38:37.960Z,6.1164
2023-04-26T00:39:38.700Z,6.0521
2023-04-26T00:40:39.374Z,6.0999
2023-04-26T00:41:40.084Z,6.1287
2023-04-26T00:42:40.741Z,6.1762
2023-04-26T00:43:41.426Z,6.1024
2023-04-26T00:44:42.110Z,6.0728
2023-04-26T00:45:42.839Z,6.1082
2023-04-26T00:46:43.471Z,6.1096
2023-04-26T00:47:44.162Z,6.1156
2023-04-26T00:48:44.790Z,6.0926
2023-04-26T00:49:45.483Z,6.0903
2023-04-26T00:50:46.159Z,6.1084
2023-04-26T00:51:46.829Z,6.2101
2023-04-26T00:52:47.558Z,6.2477
2023-04-26T00:53:48.210Z,6.2367
2023-04-26T00:54:48.939Z,6.2749
2023-04-26T00:55:49.661Z,6.2918
2023-04-26T00:56:50.348Z,6.3096
2023-04-26T00:57:51.000Z,6.2706
2023-04-26T00:58:51.870Z,6.3153
2023-04-26T00:59:52.828Z,6.2760
2023-04-26T01:00:53.811Z,6.2253
2023-04-26T01:01:54.530Z,6.2287
2023-04-26T01:02:55.314Z,6.1924
2023-04-26T01:03:56.131Z,6.1742
2023-04-26T01:04:57.037Z,6.2193
2023-04-26T01:05:57.688Z,6.1855
2023-04-26T01:06:58.390Z,6.1720
2023-04-26T01:07:59.102Z,6.1494
2023-04-26T01:08:59.773Z,6.1366
2023-04-26T01:10:00.464Z,6.1380
2023-04-26T01:11:01.157Z,6.1062
2023-04-26T01:12:01.867Z,6.1188
2023-04-26T01:13:02.582Z,6.1194
2023-04-26T01:14:03.257Z,6.1384
2023-04-26T01:15:03.978Z,6.1210
2023-04-26T01:16:04.694Z,6.1067
2023-04-26T01:17:05.340Z,6.1410
2023-04-26T01:18:06.093Z,6.1515
2023-04-26T01:19:06.735Z,6.1253
2023-04-26T01:20:07.422Z,6.1317
2023-04-26T01:21:08.126Z,6.1271
2023-04-26T01:22:08.873Z,6.1113
2023-04-26T01:23:09.535Z,6.1143
2023-04-26T01:24:10.209Z,6.0840
2023-04-26T01:25:10.898Z,6.0868
2023-04-26T01:26:11.595Z,6.0386
2023-04-26T01:27:12.230Z,5.9862
2023-04-26T01:28:12.878Z,5.9761
2023-04-26T01:29:13.598Z,5.9699
2023-04-26T01:30:14.361Z,5.8957
2023-04-26T01:31:15.030Z,5.8176
2023-04-26T01:32:15.734Z,5.8797
2023-04-26T01:33:16.472Z,5.8987
2023-04-26T01:34:17.192Z,5.8505
2023-04-26T01:35:17.916Z,5.7786
2023-04-26T01:36:18.565Z,5.7613
2023-04-26T01:37:19.231Z,5.7422
2023-04-26T01:38:19.963Z,5.7512
2023-04-26T01:39:20.603Z,5.7531
2023-04-26T01:40:21.358Z,5.7525
2023-04-26T01:41:21.984Z,5.7236
2023-04-26T01:42:22.689Z,5.6507
2023-04-26T01:43:23.388Z,5.6135
2023-04-26T01:44:24.053Z,5.6512
2023-04-26T01:45:24.739Z,5.6351
2023-04-26T01:46:25.442Z,5.6325
2023-04-26T01:47:26.121Z,5.5902
2023-04-26T01:48:26.784Z,5.5270
2023-04-26T01:49:27.455Z,5.6194
2023-04-26T01:50:28.122Z,5.6059
2023-04-26T01:51:28.962Z,5.6275
2023-04-26T01:52:29.784Z,5.5571
2023-04-26T01:53:30.531Z,5.5276
2023-04-26T01:54:31.189Z,5.5993
2023-04-26T01:55:31.855Z,5.6206
2023-04-26T01:56:32.666Z,5.6580
2023-04-26T01:57:33.407Z,5.6563
2023-04-26T01:58:34.100Z,5.6703
2023-04-26T01:59:34.737Z,5.7186
2023-04-26T02:00:35.454Z,5.6408
2023-04-26T02:01:36.118Z,5.5606
2023-04-26T02:02:36.945Z,5.5232
2023-04-26T02:03:37.844Z,5.5215
2023-04-26T02:04:38.565Z,5.4475
2023-04-26T02:05:39.194Z,5.4458
2023-04-26T02:06:39.896Z,5.4672
2023-04-26T02:07:40.609Z,5.4065
2023-04-26T02:08:41.247Z,5.3582
2023-04-26T02:09:41.943Z,5.2745
2023-04-26T02:10:42.659Z,5.2813
2023-04-26T02:11:43.358Z,5.2351
2023-04-26T02:12:44.066Z,5.2767
2023-04-26T02:13:44.711Z,5.3162
2023-04-26T02:14:45.361Z,5.3755
2023-04-26T02:15:46.127Z,5.3891
2023-04-26T02:16:46.881Z,5.3954
2023-04-26T02:17:47.547Z,5.3988
2023-04-26T02:18:48.289Z,5.3822
2023-04-26T02:19:48.939Z,5.4130
2023-04-26T02:20:49.650Z,5.4493
2023-04-26T02:21:50.337Z,5.5406
2023-04-26T02:22:50.998Z,5.5535
2023-04-26T02:23:51.629Z,5.5657
2023-04-26T02:24:52.319Z,5.6327
2023-04-26T02:25:52.987Z,5.6745
2023-04-26T02:26:53.682Z,5.6186
2023-04-26T02:27:54.357Z,5.5817
2023-04-26T02:28:55.159Z,5.5828
2023-04-26T02:29:55.846Z,5.5340
2023-04-26T02:30:56.556Z,5.5179
2023-04-26T02:31:57.377Z,5.5343
2023-04-26T02:32:58.092Z,5.5496
2023-04-26T02:33:58.778Z,5.5066
2023-04-26T02:34:59.527Z,5.4872
2023-04-26T02:36:00.186Z,5.4875
2023-04-26T02:37:00.912Z,5.4279
2023-04-26T02:38:01.632Z,5.4065
2023-04-26T02:39:02.325Z,5.4339
2023-04-26T02:40:03.054Z,5.4329
2023-04-26T02:41:03.940Z,5.4292
2023-04-26T02:42:04.708Z,5.4492
2023-04-26T02:43:05.385Z,5.4175
2023-04-26T02:44:06.091Z,5.4153
2023-04-26T02:45:06.854Z,5.4372
2023-04-26T02:46:07.563Z,5.3907
2023-04-26T02:47:08.321Z,5.4318
2023-04-26T02:48:09.083Z,5.3912
2023-04-26T02:49:09.750Z,5.4741
2023-04-26T02:50:10.420Z,5.5634
2023-04-26T02:51:11.104Z,5.6272
2023-04-26T02:52:11.814Z,5.6972
2023-04-26T02:53:12.514Z,5.6682
2023-04-26T02:54:13.252Z,5.6158
2023-04-26T02:55:13.928Z,5.6657
2023-04-26T02:56:14.620Z,5.6523
2023-04-26T02:57:15.287Z,5.6769
2023-04-26T02:58:16.000Z,5.6837
2023-04-26T02:59:16.673Z,5.6186
2023-04-26T03:00:17.399Z,5.5658
2023-04-26T03:01:18.159Z,5.5860
2023-04-26T03:02:18.970Z,5.5708
2023-04-26T03:03:19.910Z,5.5962
2023-04-26T03:04:21.030Z,5.5229
2023-04-26T03:05:21.705Z,5.5481
2023-04-26T03:06:22.428Z,5.6005
2023-04-26T03:07:23.138Z,5.5827
2023-04-26T03:08:23.988Z,5.5976
2023-04-26T03:09:24.606Z,5.6062
2023-04-26T03:10:25.285Z,5.6200
2023-04-26T03:11:26.011Z,5.5981
2023-04-26T03:12:26.123Z,5.6009
2023-04-26T03:13:26.852Z,5.6510
2023-04-26T03:14:27.528Z,5.6592
2023-04-26T03:15:28.216Z,5.6592
2023-04-26T03:16:28.969Z,5.6752
2023-04-26T03:17:29.625Z,5.6497
2023-04-26T03:18:30.363Z,5.6658
2023-04-26T03:19:31.020Z,5.7134
2023-04-26T03:20:31.685Z,5.7070
2023-04-26T03:21:32.357Z,5.6936
2023-04-26T03:22:33.036Z,5.6753
2023-04-26T03:23:33.760Z,5.6115
2023-04-26T03:24:34.448Z,5.5956
2023-04-26T03:25:35.154Z,5.6791
2023-04-26T03:26:35.838Z,5.6626
2023-04-26T03:27:36.506Z,5.6763
2023-04-26T03:28:37.203Z,5.7174
2023-04-26T03:29:37.920Z,5.7140
2023-04-26T03:30:38.621Z,5.7173
2023-04-26T03:31:39.461Z,5.7105
2023-04-26T03:32:40.185Z,5.6987
2023-04-26T03:33:40.787Z,5.7109
2023-04-26T03:34:41.490Z,5.6875
2023-04-26T03:35:42.192Z,5.6878
2023-04-26T03:36:42.927Z,5.6762
2023-04-26T03:37:43.575Z,5.7046
2023-04-26T03:38:44.247Z,5.7014
2023-04-26T03:39:44.952Z,5.7473
2023-04-26T03:40:45.684Z,5.6777
2023-04-26T03:41:46.367Z,5.6587
2023-04-26T03:42:47.122Z,5.6491
2023-04-26T03:43:47.767Z,5.6345
2023-04-26T03:44:48.466Z,5.6555
2023-04-26T03:45:49.148Z,5.6567
2023-04-26T03:46:49.902Z,5.6512
2023-04-26T03:47:50.693Z,5.6310
2023-04-26T03:48:51.703Z,5.6280
2023-04-26T03:49:52.808Z,5.6180
2023-04-26T03:50:53.505Z,5.6196
2023-04-26T03:51:54.181Z,5.6237
2023-04-26T03:52:54.882Z,5.5575
2023-04-26T03:53:55.593Z,5.5891
2023-04-26T03:54:56.264Z,5.5550
2023-04-26T03:55:56.936Z,5.5210
2023-04-26T03:56:57.619Z,5.5179
2023-04-26T03:57:58.534Z,5.4503
2023-04-26T03:58:59.173Z,5.4610
2023-04-26T03:59:59.934Z,5.4629
2023-04-26T04:01:00.571Z,5.4134
2023-04-26T04:02:01.267Z,5.3707
2023-04-26T04:03:02.016Z,5.3649
2023-04-26T04:04:02.935Z,5.3464
2023-04-26T04:05:03.853Z,5.3240
2023-04-26T04:06:04.620Z,5.3250
2023-04-26T04:07:05.308Z,5.3317
2023-04-26T04:08:06.017Z,5.3376
2023-04-26T04:09:06.728Z,5.3584
2023-04-26T04:10:07.401Z,5.3875
2023-04-26T04:11:08.137Z,5.3889
2023-04-26T04:12:08.834Z,5.3239
2023-04-26T04:13:09.547Z,5.3404
2023-04-26T04:14:10.302Z,5.3231
2023-04-26T04:15:10.998Z,5.3390
2023-04-26T04:16:11.756Z,5.3276
2023-04-26T04:17:12.428Z,5.3369
2023-04-26T04:18:13.177Z,5.2973
2023-04-26T04:19:13.888Z,5.2487
2023-04-26T04:20:14.622Z,5.2987
2023-04-26T04:21:15.347Z,5.3353
2023-04-26T04:22:16.071Z,5.3223
2023-04-26T04:23:16.787Z,5.2808
2023-04-26T04:24:17.429Z,5.1999
2023-04-26T04:25:18.108Z,5.2203
2023-04-26T04:26:18.754Z,5.2501
2023-04-26T04:27:19.523Z,5.2738
2023-04-26T04:28:20.174Z,5.3106
2023-04-26T04:29:20.875Z,5.3390
2023-04-26T04:30:21.584Z,5.3804
2023-04-26T04:31:22.363Z,5.4151
2023-04-26T04:32:23.181Z,5.4247
2023-04-26T04:33:23.878Z,5.4305
2023-04-26T04:34:24.575Z,5.4491
2023-04-26T04:35:25.251Z,5.3891
2023-04-26T04:36:25.924Z,5.4381
2023-04-26T04:37:26.615Z,5.4337
2023-04-26T04:38:27.315Z,5.4294
2023-04-26T04:39:27.953Z,5.4617
2023-04-26T04:40:28.663Z,5.4580
2023-04-26T04:41:29.404Z,5.4448
2023-04-26T04:42:30.087Z,5.4716
2023-04-26T04:43:31.087Z,5.5033
2023-04-26T04:44:31.885Z,5.4879
2023-04-26T04:45:32.574Z,5.5236
2023-04-26T04:46:33.312Z,5.5806
2023-04-26T04:47:34.247Z,5.6047
2023-04-26T04:48:34.995Z,5.5248
2023-04-26T04:49:35.710Z,5.5485
2023-04-26T04:50:36.394Z,5.5906
2023-04-26T04:51:37.122Z,5.6089
2023-04-26T04:52:37.923Z,5.5748
2023-04-26T04:53:38.638Z,5.5956
2023-04-26T04:54:39.250Z,5.6121
2023-04-26T04:55:39.980Z,5.6583
2023-04-26T04:56:40.622Z,5.6544
2023-04-26T04:57:43.117Z,5.5556
2023-04-26T04:58:43.948Z,5.5714
2023-04-26T04:59:44.737Z,5.6035
2023-04-26T05:00:45.412Z,5.6411
2023-04-26T05:01:46.134Z,5.5872
2023-04-26T05:02:46.951Z,5.5601
2023-04-26T05:03:47.776Z,5.5445
2023-04-26T05:04:48.541Z,5.5817
2023-04-26T05:05:49.294Z,5.5422
2023-04-26T05:06:50.039Z,5.5560
2023-04-26T05:07:50.900Z,5.5638
2023-04-26T05:08:51.628Z,5.5571
2023-04-26T05:09:52.325Z,5.5395
2023-04-26T05:10:52.958Z,5.5816
2023-04-26T05:11:53.620Z,5.5974
2023-04-26T05:12:54.340Z,5.6929
2023-04-26T05:13:55.592Z,5.7257
2023-04-26T05:14:56.699Z,5.6766
2023-04-26T05:15:57.503Z,5.6066
2023-04-26T05:16:58.205Z,5.6370
2023-04-26T05:17:58.966Z,5.6441
2023-04-26T05:18:59.670Z,5.6919
2023-04-26T05:20:00.494Z,5.6763
2023-04-26T05:21:01.201Z,5.6345
2023-04-26T05:22:01.907Z,5.6145
2023-04-26T05:23:02.626Z,5.5834
2023-04-26T05:24:03.363Z,5.6320
2023-04-26T05:25:04.064Z,5.5758
2023-04-26T05:26:04.747Z,5.6022
2023-04-26T05:27:05.443Z,5.5675
2023-04-26T05:28:06.144Z,5.6264
2023-04-26T05:29:06.811Z,5.6370
2023-04-26T05:30:07.454Z,5.6331
2023-04-26T05:31:10.632Z,5.6090
2023-04-26T05:32:09.354Z,5.6344
2023-04-26T05:33:10.073Z,5.6118
2023-04-26T05:34:10.743Z,5.6344
2023-04-26T05:35:11.397Z,5.6612
2023-04-26T05:36:12.083Z,5.7072
2023-04-26T05:37:12.742Z,5.7290
2023-04-26T05:38:13.485Z,5.8025
2023-04-26T05:39:14.157Z,5.8051
2023-04-26T05:40:14.837Z,5.8113
2023-04-26T05:41:15.570Z,5.8313
2023-04-26T05:42:17.855Z,5.8365
2023-04-26T05:43:19.136Z,5.7667
2023-04-26T05:44:19.928Z,5.7706
2023-04-26T05:45:20.626Z,5.7894
2023-04-26T05:46:21.607Z,5.8471
2023-04-26T05:47:22.613Z,5.7921
2023-04-26T05:48:23.331Z,5.7969
2023-04-26T05:49:24.017Z,5.8177
2023-04-26T05:50:24.749Z,5.8797
2023-04-26T05:51:25.456Z,5.9058
2023-04-26T05:52:26.179Z,6.0554
2023-04-26T05:53:26.923Z,6.0159
2023-04-26T05:54:27.628Z,5.8423
2023-04-26T05:55:28.367Z,5.9602
2023-04-26T05:56:29.121Z,6.0131
2023-04-26T05:57:29.943Z,5.8671
2023-04-26T05:58:30.662Z,5.8831
2023-04-26T05:59:31.376Z,5.9680
2023-04-26T06:00:32.108Z,5.9347
2023-04-26T06:01:32.873Z,5.9557
2023-04-26T06:02:33.876Z,6.0278
2023-04-26T06:03:35.151Z,6.0029
2023-04-26T06:04:36.191Z,6.0124
2023-04-26T06:05:36.944Z,5.8182
2023-04-26T06:06:37.785Z,5.8013
2023-04-26T06:07:38.499Z,5.7929
2023-04-26T06:08:39.229Z,5.8482
2023-04-26T06:09:39.935Z,5.9103
2023-04-26T06:10:40.673Z,5.9774
2023-04-26T06:11:41.321Z,6.1068
2023-04-26T06:12:42.056Z,6.1495
2023-04-26T06:13:43.126Z,6.1276
2023-04-26T06:14:43.946Z,6.0761
2023-04-26T06:15:44.605Z,6.0492
2023-04-26T06:16:45.428Z,6.1055
2023-04-26T06:17:46.132Z,5.8682
2023-04-26T06:18:46.902Z,5.8456
2023-04-26T06:19:47.698Z,5.9099
2023-04-26T06:20:48.440Z,6.1069
2023-04-26T06:21:49.169Z,6.0969
2023-04-26T06:22:49.939Z,6.1279
2023-04-26T06:23:50.942Z,6.1775
2023-04-26T06:24:52.004Z,5.9758
2023-04-26T06:25:52.669Z,5.7827
2023-04-26T06:26:53.414Z,5.8161
2023-04-26T06:27:54.163Z,5.6316
2023-04-26T06:28:54.890Z,5.7059
2023-04-26T06:29:55.605Z,5.7643
2023-04-26T06:30:56.450Z,6.0074
2023-04-26T06:31:57.173Z,6.0858
2023-04-26T06:32:58.032Z,6.1988
2023-04-26T06:33:58.779Z,6.1559
2023-04-26T06:34:59.509Z,6.1188
2023-04-26T06:36:00.223Z,6.0347
2023-04-26T06:37:00.994Z,5.9664
2023-04-26T06:38:01.689Z,6.0494
2023-04-26T06:39:02.419Z,6.0756
2023-04-26T06:40:03.124Z,6.0272
2023-04-26T06:41:03.863Z,6.1429
2023-04-26T06:42:04.633Z,6.3833
2023-04-26T06:43:05.370Z,5.9901
2023-04-26T06:44:06.126Z,6.0240
2023-04-26T06:45:06.881Z,6.1546
2023-04-26T06:46:07.602Z,6.0363
2023-04-26T06:47:08.311Z,6.0896
2023-04-26T06:48:09.098Z,6.1079
2023-04-26T06:49:09.870Z,6.1954
2023-04-26T06:50:10.614Z,6.3109
2023-04-26T06:51:11.390Z,6.1974
2023-04-26T06:52:12.215Z,6.0070
2023-04-26T06:53:12.922Z,5.9277
2023-04-26T06:54:13.708Z,6.0896
2023-04-26T06:55:14.442Z,6.3706
2023-04-26T06:56:15.133Z,6.4341
2023-04-26T06:57:15.874Z,6.6576
2023-04-26T06:58:16.824Z,6.6287
2023-04-26T06:59:17.572Z,6.6777
2023-04-26T07:00:18.317Z,6.6342
2023-04-26T07:01:19.069Z,6.3007
2023-04-26T07:02:20.068Z,6.4387
2023-04-26T07:03:21.033Z,6.6508
2023-04-26T07:04:22.047Z,6.5791
2023-04-26T07:05:22.911Z,6.6221
2023-04-26T07:06:23.677Z,6.6493
2023-04-26T07:07:24.355Z,6.8414
2023-04-26T07:08:25.100Z,6.8664
2023-04-26T07:09:25.804Z,6.9663
2023-04-26T07:10:26.535Z,6.9600
2023-04-26T07:11:27.270Z,6.9020
2023-04-26T07:12:27.960Z,6.9820
2023-04-26T07:13:28.658Z,6.7501
2023-04-26T07:14:29.343Z,6.8460
2023-04-26T07:15:30.041Z,6.8550
2023-04-26T07:16:30.803Z,6.6678
2023-04-26T07:17:31.600Z,6.5946
2023-04-26T07:18:32.323Z,6.8083
2023-04-26T07:19:33.093Z,6.7891
2023-04-26T07:20:33.871Z,6.6403
2023-04-26T07:21:34.570Z,6.7703
2023-04-26T07:22:35.296Z,6.7898
2023-04-26T07:23:36.090Z,6.6506
2023-04-26T07:24:36.774Z,6.7659
2023-04-26T07:25:37.488Z,6.9021
2023-04-26T07:26:38.208Z,6.9220
2023-04-26T07:27:38.967Z,7.0718
2023-04-26T07:28:39.688Z,7.1172
2023-04-26T07:29:40.435Z,7.0953
2023-04-26T07:30:41.145Z,7.2683
2023-04-26T07:31:41.817Z,7.3900
2023-04-26T07:32:42.659Z,7.2378
2023-04-26T07:33:43.505Z,7.3500
2023-04-26T07:34:44.251Z,7.4890
2023-04-26T07:35:44.988Z,7.4552
2023-04-26T07:36:45.705Z,7.1904
2023-04-26T07:37:46.412Z,7.1476
2023-04-26T07:38:47.179Z,7.2074
2023-04-26T07:39:47.837Z,7.2059
2023-04-26T07:40:48.567Z,7.3834
2023-04-26T07:41:49.238Z,7.4345
2023-04-26T07:42:49.975Z,7.4743
2023-04-26T07:43:50.882Z,7.6028
2023-04-26T07:44:51.973Z,7.5652
2023-04-26T07:45:52.727Z,7.6960
2023-04-26T07:46:53.416Z,7.4300
2023-04-26T07:47:54.781Z,7.2386
2023-04-26T07:48:55.884Z,7.0878
2023-04-26T07:49:56.603Z,7.2701
2023-04-26T07:50:57.327Z,7.2536
2023-04-26T07:51:58.023Z,7.3478
2023-04-26T07:52:58.769Z,7.4364
2023-04-26T07:53:59.440Z,7.3495
2023-04-26T07:55:00.161Z,7.3721
2023-04-26T07:56:00.882Z,7.5535
2023-04-26T07:57:01.636Z,7.4829
2023-04-26T07:58:02.314Z,7.3897
2023-04-26T07:59:03.053Z,7.5083
2023-04-26T08:00:03.744Z,7.7806
2023-04-26T08:01:04.443Z,7.7837
2023-04-26T08:02:05.199Z,7.8480
2023-04-26T08:03:06.108Z,7.7288
2023-04-26T08:04:07.435Z,7.6533
2023-04-26T08:05:08.445Z,7.8674
2023-04-26T08:06:09.233Z,7.5266
2023-04-26T08:07:09.968Z,7.3116
2023-04-26T08:08:10.616Z,7.5472
2023-04-26T08:09:12.499Z,7.7391
2023-04-26T08:10:13.331Z,7.7022
2023-04-26T08:11:14.082Z,7.5726
2023-04-26T08:12:14.830Z,7.6469
2023-04-26T08:13:15.509Z,7.5586
2023-04-26T08:14:16.399Z,7.5135
2023-04-26T08:15:17.103Z,7.7447
2023-04-26T08:16:17.830Z,7.9810
2023-04-26T08:17:18.568Z,8.1244
2023-04-26T08:18:19.292Z,8.0730
2023-04-26T08:19:20.069Z,7.9788
2023-04-26T08:20:20.769Z,7.9117
2023-04-26T08:21:21.510Z,8.0122
2023-04-26T08:22:22.254Z,8.2967
2023-04-26T08:23:22.983Z,8.3210
2023-04-26T08:24:23.884Z,8.2210
2023-04-26T08:25:24.768Z,8.1866
2023-04-26T08:26:25.494Z,8.0365
2023-04-26T08:27:26.236Z,8.1997
2023-04-26T08:28:26.925Z,8.3800
2023-04-26T08:29:27.684Z,8.2483
2023-04-26T08:30:28.411Z,8.3138
2023-04-26T08:31:29.256Z,8.4435
2023-04-26T08:32:30.066Z,8.4075
2023-04-26T08:33:30.762Z,8.5230
2023-04-26T08:34:31.505Z,8.3632
2023-04-26T08:35:32.271Z,8.3236
2023-04-26T08:36:32.962Z,8.4174
2023-04-26T08:37:33.660Z,8.3259
2023-04-26T08:38:34.426Z,8.4555
2023-04-26T08:39:35.160Z,8.4447
2023-04-26T08:40:35.885Z,8.2960
2023-04-26T08:41:36.595Z,8.3182
2023-04-26T08:42:38.002Z,8.0910
2023-04-26T08:43:38.976Z,8.3114
2023-04-26T08:44:39.674Z,8.5377
2023-04-26T08:45:40.495Z,8.4732
2023-04-26T08:46:41.226Z,8.4605
2023-04-26T08:47:42.022Z,8.6708
2023-04-26T08:48:42.727Z,8.4705
2023-04-26T08:49:43.443Z,8.2602
2023-04-26T08:50:44.109Z,8.1923
2023-04-26T08:51:44.855Z,8.4256
2023-04-26T08:52:45.632Z,8.6149
2023-04-26T08:53:46.298Z,8.8849
2023-04-26T08:54:47.036Z,8.6883
2023-04-26T08:55:47.724Z,8.7132
2023-04-26T08:56:48.415Z,8.6060
2023-04-26T08:57:49.105Z,8.5927
2023-04-26T08:58:49.790Z,8.5510
2023-04-26T08:59:50.524Z,8.5090
2023-04-26T09:00:51.383Z,8.6441
2023-04-26T09:01:52.119Z,8.3348
2023-04-26T09:02:53.197Z,8.4017
2023-04-26T09:03:54.585Z,8.5416
2023-04-26T09:04:55.973Z,8.7361
2023-04-26T09:05:56.930Z,8.7778
2023-04-26T09:06:57.652Z,8.8880
2023-04-26T09:07:58.344Z,9.0472
2023-04-26T09:08:59.036Z,9.3362
2023-04-26T09:09:59.840Z,9.2817
2023-04-26T09:11:00.531Z,9.4455
2023-04-26T09:12:01.230Z,9.1035
2023-04-26T09:13:01.957Z,8.9294
2023-04-26T09:14:02.662Z,9.1876
2023-04-26T09:15:03.372Z,9.4546
2023-04-26T09:16:05.267Z,9.6057
2023-04-26T09:17:06.323Z,9.7152
2023-04-26T09:18:07.043Z,9.6573
2023-04-26T09:19:07.769Z,9.7496
2023-04-26T09:20:08.608Z,9.6030
2023-04-26T09:21:09.305Z,9.7300
2023-04-26T09:22:10.026Z,9.5294
2023-04-26T09:23:10.736Z,9.5389
2023-04-26T09:24:11.404Z,9.2315
2023-04-26T09:25:12.103Z,9.2732
2023-04-26T09:26:12.791Z,9.6418
2023-04-26T09:27:13.509Z,9.7176
2023-04-26T09:28:14.182Z,9.8839
2023-04-26T09:29:14.970Z,9.8307
2023-04-26T09:30:15.665Z,9.9407
2023-04-26T09:31:16.399Z,10.1116
2023-04-26T09:32:17.079Z,10.4131
2023-04-26T09:33:17.897Z,10.4297
2023-04-26T09:34:18.568Z,10.4608
2023-04-26T09:35:19.278Z,10.4264
2023-04-26T09:36:19.946Z,10.5869
2023-04-26T09:37:20.627Z,10.7061
2023-04-26T09:38:21.364Z,9.7945
2023-04-26T09:39:22.031Z,10.0439
2023-04-26T09:40:22.788Z,10.2632
2023-04-26T09:41:23.518Z,10.2171
2023-04-26T09:42:24.192Z,10.1895
2023-04-26T09:43:24.826Z,10.1008
2023-04-26T09:44:25.469Z,10.1837
2023-04-26T09:45:26.119Z,10.1704
2023-04-26T09:46:26.843Z,10.0715
2023-04-26T09:47:27.474Z,10.5331
2023-04-26T09:48:28.113Z,10.2821
2023-04-26T09:49:28.766Z,10.1723
2023-04-26T09:50:29.459Z,10.2457
2023-04-26T09:51:30.145Z,10.2211
2023-04-26T09:52:30.792Z,10.2625
2023-04-26T09:53:31.434Z,10.3052
2023-04-26T09:54:32.046Z,10.3190
2023-04-26T09:55:35.468Z,10.5540
2023-04-26T09:56:33.819Z,10.3037
2023-04-26T09:57:34.472Z,10.8280
2023-04-26T09:58:35.093Z,10.4808
2023-04-26T09:59:35.725Z,10.6308
2023-04-26T10:00:36.386Z,10.9117
2023-04-26T10:01:37.088Z,10.6654
2023-04-26T10:02:37.808Z,10.2746
2023-04-26T10:03:38.798Z,10.1948
2023-04-26T10:04:39.788Z,10.0074
2023-04-26T10:05:40.455Z,10.0816
2023-04-26T10:06:41.147Z,10.4178
2023-04-26T10:07:41.875Z,10.8640
2023-04-26T10:08:42.570Z,10.9436
2023-04-26T10:09:43.208Z,10.7584
2023-04-26T10:10:43.929Z,10.7486
2023-04-26T10:11:44.576Z,10.3160
2023-04-26T10:12:45.264Z,10.4586
2023-04-26T10:13:45.991Z,10.6256
2023-04-26T10:14:46.694Z,10.4548
2023-04-26T10:15:47.406Z,10.8486
2023-04-26T10:16:48.112Z,10.6815
2023-04-26T10:17:50.239Z,10.6596
2023-04-26T10:18:50.185Z,11.1546
2023-04-26T10:19:50.939Z,10.6112
2023-04-26T10:20:51.609Z,10.8741
2023-04-26T10:21:52.289Z,10.8651
2023-04-26T10:22:52.963Z,11.1031
2023-04-26T10:23:53.700Z,10.8895
2023-04-26T10:24:54.391Z,11.0325
2023-04-26T10:25:55.082Z,11.2218
2023-04-26T10:26:55.810Z,11.5049
2023-04-26T10:27:56.525Z,11.7952
2023-04-26T10:29:02.098Z,11.7145
2023-04-26T10:29:58.330Z,11.5421
2023-04-26T10:30:58.996Z,10.9698
2023-04-26T10:31:59.653Z,10.9319
2023-04-26T10:33:00.331Z,11.5522
2023-04-26T10:34:00.948Z,11.7217
2023-04-26T10:35:01.621Z,12.2301
2023-04-26T10:36:02.260Z,12.4224
2023-04-26T10:37:02.995Z,12.5480
2023-04-26T10:38:03.638Z,12.6337
2023-04-26T10:39:04.261Z,12.9055
2023-04-26T10:40:04.863Z,12.8379
2023-04-26T10:41:05.545Z,12.0727
2023-04-26T10:42:06.171Z,12.4184
2023-04-26T10:43:06.806Z,11.7149
2023-04-26T10:44:07.421Z,11.8370
2023-04-26T10:45:08.054Z,12.3085
2023-04-26T10:46:08.695Z,12.8590
2023-04-26T10:47:09.284Z,12.3349
2023-04-26T10:48:09.964Z,11.9226
2023-04-26T10:49:10.589Z,12.0517
2023-04-26T10:50:11.215Z,11.6338
2023-04-26T10:51:11.958Z,11.9751
2023-04-26T10:52:12.554Z,11.9274
2023-04-26T10:53:13.198Z,12.0704
2023-04-26T10:54:13.836Z,12.0447
2023-04-26T10:55:14.469Z,11.9098
2023-04-26T10:56:15.083Z,12.0069
2023-04-26T10:57:15.716Z,12.0739
2023-04-26T10:58:16.323Z,12.5067
2023-04-26T10:59:36.125Z,13.0588
2023-04-26T11:00:18.001Z,12.9134
2023-04-26T11:01:18.751Z,13.2916
2023-04-26T11:02:19.408Z,12.5175
2023-04-26T11:03:20.104Z,12.4294
2023-04-26T11:04:20.897Z,12.8746
2023-04-26T11:05:23.557Z,13.1821
2023-04-26T11:06:22.670Z,13.3494
2023-04-26T11:07:23.291Z,13.0844
2023-04-26T11:08:23.934Z,13.0587
2023-04-26T11:09:24.552Z,13.2924
2023-04-26T11:10:25.219Z,13.0140
2023-04-26T11:11:25.905Z,12.0661
2023-04-26T11:12:26.586Z,12.1180
2023-04-26T11:13:27.211Z,12.2805
2023-04-26T11:14:27.872Z,12.4263
2023-04-26T11:15:28.506Z,12.3155
2023-04-26T11:16:29.302Z,12.3306
2023-04-26T11:17:30.002Z,12.5360
2023-04-26T11:18:30.629Z,13.6164
2023-04-26T11:19:31.256Z,13.7799
2023-04-26T11:20:31.830Z,13.9428
2023-04-26T11:21:32.444Z,14.2920
2023-04-26T11:22:33.023Z,14.2474
2023-04-26T11:23:33.849Z,14.6117
2023-04-26T11:24:34.448Z,13.9923
2023-04-26T11:25:35.041Z,13.9570
2023-04-26T11:26:35.652Z,13.9499
2023-04-26T11:27:36.163Z,14.3557
2023-04-26T11:28:36.737Z,13.8341
2023-04-26T11:29:37.331Z,13.3302
2023-04-26T11:30:38.506Z,13.8947
2023-04-26T11:31:39.460Z,14.1256
2023-04-26T11:32:40.120Z,13.3345
2023-04-26T11:33:40.699Z,13.3980
2023-04-26T11:34:41.297Z,13.5414
2023-04-26T11:35:41.869Z,14.5231
2023-04-26T11:36:42.473Z,15.0593
2023-04-26T11:37:43.051Z,14.8657
2023-04-26T11:38:43.694Z,15.2929
2023-04-26T11:39:44.318Z,15.7679
2023-04-26T11:40:44.867Z,15.4859
2023-04-26T11:41:45.436Z,14.1826
2023-04-26T11:42:46.029Z,14.4850
2023-04-26T11:43:46.634Z,14.6662
2023-04-26T11:44:47.879Z,13.4603
2023-04-26T11:45:48.608Z,13.5478
2023-04-26T11:46:49.291Z,13.1761
2023-04-26T11:47:49.899Z,13.7686
2023-04-26T11:48:50.425Z,14.2013
2023-04-26T11:49:51.070Z,13.6896
2023-04-26T11:50:51.614Z,13.9410
2023-04-26T11:51:52.218Z,13.8600
2023-04-26T11:52:52.773Z,14.1491
2023-04-26T11:53:53.318Z,14.0479
2023-04-26T11:54:53.869Z,14.2417
2023-04-26T11:55:54.459Z,14.6015
2023-04-26T11:56:55.050Z,14.2768
2023-04-26T11:57:55.865Z,14.0502
2023-04-26T11:58:56.834Z,14.0231
2023-04-26T11:59:57.639Z,14.1514
2023-04-26T12:00:58.213Z,13.9541
2023-04-26T12:01:58.936Z,13.7682
2023-04-26T12:02:59.715Z,13.8202
2023-04-26T12:04:00.792Z,14.0275
2023-04-26T12:05:01.822Z,14.5187
2023-04-26T12:06:02.545Z,14.3059
2023-04-26T12:07:03.113Z,14.4152
2023-04-26T12:08:03.681Z,13.9649
2023-04-26T12:09:04.258Z,12.9883
2023-04-26T12:10:04.880Z,12.7533
2023-04-26T12:11:05.497Z,12.9681
2023-04-26T12:12:06.092Z,13.4156
2023-04-26T12:13:06.695Z,13.5544
2023-04-26T12:14:07.377Z,13.1856
2023-04-26T12:15:08.140Z,13.0945
2023-04-26T12:16:22.277Z,13.4199
2023-04-26T12:17:09.967Z,13.4347
2023-04-26T12:18:11.072Z,13.6177
2023-04-26T12:19:12.243Z,13.5928
2023-04-26T12:20:12.917Z,13.2526
2023-04-26T12:21:13.525Z,13.3426
2023-04-26T12:22:14.149Z,13.7594
2023-04-26T12:23:14.756Z,13.9200
2023-04-26T12:24:15.350Z,13.9522
2023-04-26T12:25:15.971Z,13.9431
2023-04-26T12:26:16.601Z,13.1409
2023-04-26T12:27:17.170Z,13.5380
2023-04-26T12:28:17.882Z,13.5595
2023-04-26T12:29:18.548Z,13.8158
2023-04-26T12:30:19.200Z,13.9709
2023-04-26T12:31:19.857Z,14.3607